createdAt,value
2019-05-05T00:01:15.755Z,1.10
2019-05-05T00:04:05.576Z,1.20
2019-05-05T00:06:44.574Z,1.00
2019-05-05T00:09:14.619Z,1.00
2019-05-05T00:11:49.284Z,0.90
2019-05-05T00:14:24.610Z,1.00
2019-05-05T00:17:06.828Z,1.03
2019-05-05T00:19:36.977Z,1.00
2019-05-05T00:22:08.728Z,1.37
2019-05-05T00:24:44.372Z,1.07
2019-05-05T00:27:15.069Z,1.07
2019-05-05T00:29:45.535Z,1.17
2019-05-05T00:32:15.387Z,1.20
2019-05-05T00:34:45.646Z,1.10
2019-05-05T00:37:18.517Z,1.20
2019-05-05T00:39:48.585Z,1.30
2019-05-05T00:42:20.548Z,1.10
2019-05-05T00:44:54.761Z,1.13
2019-05-05T00:47:42.355Z,1.23
2019-05-05T00:50:14.599Z,1.10
2019-05-05T00:52:44.538Z,1.23
2019-05-05T00:55:16.242Z,1.30
2019-05-05T00:57:46.280Z,1.10
2019-05-05T01:00:22.083Z,1.10
2019-05-05T01:02:54.264Z,0.90
2019-05-05T01:05:25.835Z,1.10
2019-05-05T01:07:56.313Z,1.20
2019-05-05T01:10:27.756Z,1.00
2019-05-05T01:12:57.129Z,1.00
2019-05-05T01:15:25.935Z,0.93
2019-05-05T01:17:56.316Z,1.07
2019-05-05T01:20:27.372Z,1.13
2019-05-05T01:22:56.056Z,1.20
2019-05-05T01:25:31.041Z,1.17
2019-05-05T01:28:02.141Z,1.03
2019-05-05T01:30:36.232Z,1.30
2019-05-05T01:33:21.824Z,0.97
2019-05-05T01:35:50.816Z,0.97
2019-05-05T01:38:26.800Z,1.20
2019-05-05T01:41:01.435Z,1.20
2019-05-05T01:43:30.725Z,1.37
2019-05-05T01:46:00.779Z,0.90
2019-05-05T01:48:30.839Z,1.10
2019-05-05T01:50:59.265Z,1.10
2019-05-05T01:53:30.267Z,1.10
2019-05-05T01:55:59.975Z,1.20
2019-05-05T01:58:28.394Z,1.30
2019-05-05T02:00:56.844Z,1.00
2019-05-05T02:03:25.249Z,1.20
2019-05-05T02:05:54.603Z,1.27
2019-05-05T02:08:26.341Z,1.20
2019-05-05T02:10:57.060Z,1.00
2019-05-05T02:13:26.416Z,1.10
2019-05-05T02:15:55.384Z,1.20
2019-05-05T02:18:25.383Z,1.10
2019-05-05T02:21:07.088Z,1.30
2019-05-05T02:23:38.999Z,1.00
2019-05-05T02:26:07.487Z,1.27
2019-05-05T02:28:57.612Z,1.47
2019-05-05T02:31:27.647Z,1.27
2019-05-05T02:33:56.795Z,1.23
2019-05-05T02:36:25.959Z,1.00
2019-05-05T02:38:58.775Z,0.80
2019-05-05T02:41:28.542Z,1.10
2019-05-05T02:43:58.069Z,0.90
2019-05-05T02:46:35.752Z,1.03
2019-05-05T02:49:05.316Z,1.10
2019-05-05T02:51:37.821Z,1.10
2019-05-05T02:54:07.223Z,1.30
2019-05-05T02:56:43.626Z,0.87
2019-05-05T02:59:14.776Z,1.00
2019-05-05T03:01:50.878Z,1.13
2019-05-05T03:04:24.420Z,1.20
2019-05-05T03:06:55.808Z,1.00
2019-05-05T03:09:27.582Z,1.03
2019-05-05T03:11:56.154Z,1.10
2019-05-05T03:14:27.464Z,1.30
2019-05-05T03:16:57.527Z,1.13
2019-05-05T03:19:28.736Z,1.27
2019-05-05T03:21:57.140Z,1.30
2019-05-05T03:24:25.643Z,1.03
2019-05-05T03:26:54.871Z,1.10
2019-05-05T03:29:26.376Z,1.30
2019-05-05T03:31:57.838Z,1.30
2019-05-05T03:34:28.085Z,1.07
2019-05-05T03:36:58.426Z,1.30
2019-05-05T03:39:28.939Z,1.40
2019-05-05T03:42:06.979Z,1.20
2019-05-05T03:44:47.027Z,1.00
2019-05-05T03:47:16.770Z,1.10
2019-05-05T03:49:47.212Z,1.30
2019-05-05T03:52:17.270Z,1.20
2019-05-05T03:54:45.672Z,1.37
2019-05-05T03:57:14.480Z,1.30
2019-05-05T03:59:44.297Z,1.20
2019-05-05T04:02:14.496Z,1.53
2019-05-05T04:04:44.554Z,1.13
2019-05-05T04:07:16.733Z,1.00
2019-05-05T04:09:45.690Z,1.50
2019-05-05T04:12:14.122Z,1.20
2019-05-05T04:14:46.167Z,1.23
2019-05-05T04:17:17.803Z,1.40
2019-05-05T04:19:50.819Z,1.07
2019-05-05T04:22:20.852Z,1.10
2019-05-05T04:24:49.278Z,1.00
2019-05-05T04:27:21.055Z,1.07
2019-05-05T04:29:54.319Z,1.30
2019-05-05T04:32:24.427Z,1.23
2019-05-05T04:34:57.645Z,1.30
2019-05-05T04:37:26.812Z,1.20
2019-05-05T04:39:57.413Z,1.30
2019-05-05T04:42:25.948Z,1.13
2019-05-05T04:44:56.159Z,1.00
2019-05-05T04:47:27.456Z,1.20
2019-05-05T04:49:59.963Z,1.10
2019-05-05T04:52:34.359Z,1.10
2019-05-05T04:55:05.207Z,1.10
2019-05-05T04:57:35.463Z,1.33
2019-05-05T05:00:04.697Z,1.10
2019-05-05T05:02:34.900Z,1.27
2019-05-05T05:05:08.315Z,1.20
2019-05-05T05:07:39.724Z,1.27
2019-05-05T05:10:10.512Z,1.23
2019-05-05T05:12:43.556Z,1.20
2019-05-05T05:15:15.939Z,1.20
2019-05-05T05:17:53.559Z,1.10
2019-05-05T05:20:21.948Z,1.33
2019-05-05T05:22:51.179Z,1.20
2019-05-05T05:25:20.856Z,1.40
2019-05-05T05:27:50.885Z,1.43
2019-05-05T05:30:20.733Z,1.13
2019-05-05T05:32:50.099Z,1.30
2019-05-05T05:35:19.844Z,1.23
2019-05-05T05:37:50.210Z,1.37
2019-05-05T05:40:29.164Z,1.03
2019-05-05T05:43:00.767Z,1.23
2019-05-05T05:45:43.770Z,1.40
2019-05-05T05:48:23.716Z,1.33
2019-05-05T05:51:00.059Z,1.40
2019-05-05T05:53:29.038Z,1.10
2019-05-05T05:55:57.474Z,0.97
2019-05-05T05:58:26.157Z,1.00
2019-05-05T06:00:58.331Z,1.30
2019-05-05T06:03:26.984Z,1.20
2019-05-05T06:05:55.412Z,1.10
2019-05-05T06:08:25.267Z,1.17
2019-05-05T06:10:56.229Z,1.17
2019-05-05T06:13:26.268Z,1.30
2019-05-05T06:15:54.695Z,1.40
2019-05-05T06:18:24.364Z,1.00
2019-05-05T06:20:55.792Z,1.20
2019-05-05T06:23:25.992Z,1.20
2019-05-05T06:25:57.685Z,1.30
2019-05-05T06:28:27.622Z,1.37
2019-05-05T06:30:59.231Z,1.07
2019-05-05T06:33:29.736Z,1.33
2019-05-05T06:36:03.800Z,1.10
2019-05-05T06:38:34.565Z,1.40
2019-05-05T06:41:16.520Z,1.23
2019-05-05T06:43:50.072Z,1.30
2019-05-05T06:46:29.560Z,1.40
2019-05-05T06:49:04.357Z,1.07
2019-05-05T06:51:35.171Z,1.10
2019-05-05T06:54:05.511Z,1.10
2019-05-05T06:56:34.260Z,1.00
2019-05-05T06:59:04.426Z,1.20
2019-05-05T07:01:40.374Z,1.10
2019-05-05T07:04:10.399Z,0.90
2019-05-05T07:06:50.497Z,1.30
2019-05-05T07:09:08.851Z,1.47
2019-05-05T07:11:43.530Z,1.20
2019-05-05T07:14:11.345Z,1.10
2019-05-05T07:16:45.895Z,1.13
2019-05-05T07:19:15.429Z,1.00
2019-05-05T07:21:47.865Z,1.10
2019-05-05T07:24:17.882Z,0.90
2019-05-05T07:26:48.997Z,1.10
2019-05-05T07:29:19.452Z,1.13
2019-05-05T07:31:54.801Z,1.00
2019-05-05T07:34:29.582Z,1.47
2019-05-05T07:37:00.456Z,1.17
2019-05-05T07:39:30.793Z,1.10
2019-05-05T07:42:04.420Z,1.20
2019-05-05T07:44:34.647Z,1.20
2019-05-05T07:47:04.955Z,1.20
2019-05-05T07:49:37.988Z,1.30
2019-05-05T07:52:08.146Z,1.00
2019-05-05T07:54:38.470Z,1.20
2019-05-05T07:57:08.508Z,1.17
2019-05-05T07:59:38.603Z,1.47
2019-05-05T08:02:07.279Z,0.90
2019-05-05T08:04:36.024Z,1.10
2019-05-05T08:07:06.619Z,1.00
2019-05-05T08:09:37.739Z,1.10
2019-05-05T08:12:09.504Z,0.93
2019-05-05T08:14:38.841Z,1.23
2019-05-05T08:17:20.952Z,1.10
2019-05-05T08:19:54.348Z,0.90
2019-05-05T08:22:24.312Z,1.17
2019-05-05T08:25:14.275Z,1.23
2019-05-05T08:27:48.096Z,1.10
2019-05-05T08:30:18.503Z,1.03
2019-05-05T08:32:51.536Z,0.90
2019-05-05T08:35:24.162Z,1.20
2019-05-05T08:37:56.549Z,0.90
2019-05-05T08:40:25.951Z,1.23
2019-05-05T08:42:56.666Z,1.27
2019-05-05T08:45:27.015Z,1.00
2019-05-05T08:47:57.482Z,1.00
2019-05-05T08:50:27.764Z,1.10
2019-05-05T08:52:58.305Z,1.17
2019-05-05T08:55:30.060Z,1.20
2019-05-05T08:58:00.167Z,1.23
2019-05-05T09:00:29.159Z,1.50
2019-05-05T09:02:57.828Z,1.20
2019-05-05T09:05:28.176Z,1.60
2019-05-05T09:07:59.007Z,1.47
2019-05-05T09:10:30.792Z,1.43
2019-05-05T09:13:00.236Z,2.10
2019-05-05T09:15:28.784Z,2.03
2019-05-05T09:17:59.618Z,1.77
2019-05-05T09:20:30.260Z,2.10
2019-05-05T09:23:05.603Z,1.97
2019-05-05T09:25:40.633Z,1.80
2019-05-05T09:28:15.348Z,2.13
2019-05-05T09:30:47.183Z,2.07
2019-05-05T09:33:18.285Z,2.13
2019-05-05T09:35:47.691Z,2.00
2019-05-05T09:38:16.360Z,1.97
2019-05-05T09:40:48.847Z,2.00
2019-05-05T09:43:24.073Z,2.17
2019-05-05T09:45:55.421Z,2.60
2019-05-05T09:48:25.759Z,3.83
2019-05-05T09:50:58.331Z,4.60
2019-05-05T09:53:29.988Z,5.00
2019-05-05T09:56:03.905Z,4.50
2019-05-05T09:58:41.095Z,3.93
2019-05-05T10:01:14.023Z,5.83
2019-05-05T10:03:59.731Z,6.20
2019-05-05T10:06:29.575Z,5.83
2019-05-05T10:08:59.792Z,4.60
2019-05-05T10:11:35.388Z,4.83
2019-05-05T10:14:07.224Z,4.57
2019-05-05T10:16:37.292Z,4.27
2019-05-05T10:19:09.881Z,4.10
2019-05-05T10:22:04.034Z,3.87
2019-05-05T10:24:35.163Z,3.57
2019-05-05T10:27:06.305Z,3.50
2019-05-05T10:29:38.963Z,3.50
2019-05-05T10:32:07.391Z,3.03
2019-05-05T10:34:54.705Z,3.43
2019-05-05T10:37:26.902Z,3.67
2019-05-05T10:40:03.622Z,3.10
2019-05-05T10:42:51.267Z,3.47
2019-05-05T10:45:26.672Z,3.23
2019-05-05T10:47:55.335Z,2.20
2019-05-05T10:53:18.136Z,2.73
2019-05-05T10:55:48.911Z,2.13
2019-05-05T10:58:29.888Z,3.37
2019-05-05T11:01:01.437Z,2.73
2019-05-05T11:03:31.232Z,2.30
2019-05-05T11:05:59.928Z,2.40
2019-05-05T11:08:30.867Z,2.20
2019-05-05T11:10:59.389Z,2.10
2019-05-05T11:13:29.159Z,2.37
2019-05-05T11:16:03.984Z,2.17
2019-05-05T11:18:37.010Z,1.97
2019-05-05T11:21:05.672Z,1.93
2019-05-05T11:23:36.419Z,2.27
2019-05-05T11:26:04.988Z,2.20
2019-05-05T11:28:33.910Z,2.37
2019-05-05T11:31:04.438Z,1.87
2019-05-05T11:33:46.877Z,1.90
2019-05-05T11:36:32.152Z,1.80
2019-05-05T11:39:00.825Z,1.77
2019-05-05T11:41:32.992Z,1.70
2019-05-05T11:44:03.944Z,1.57
2019-05-05T11:46:33.922Z,1.60
2019-05-05T11:49:04.830Z,1.60
2019-05-05T11:51:34.651Z,1.77
2019-05-05T11:54:04.787Z,1.60
2019-05-05T11:56:36.323Z,1.80
2019-05-05T11:59:06.355Z,1.80
2019-05-05T12:01:34.780Z,1.30
2019-05-05T12:04:04.832Z,1.50
2019-05-05T12:06:34.798Z,1.33
2019-05-05T12:09:08.230Z,1.73
2019-05-05T12:11:38.272Z,1.30
2019-05-05T12:14:08.619Z,1.50
2019-05-05T12:16:37.308Z,1.40
2019-05-05T12:19:07.352Z,1.40
2019-05-05T12:21:37.496Z,1.40
2019-05-05T12:24:11.091Z,1.53
2019-05-05T12:26:43.719Z,1.27
2019-05-05T12:29:13.999Z,1.30
2019-05-05T12:31:44.427Z,1.50
2019-05-05T12:34:13.127Z,1.00
2019-05-05T12:36:41.532Z,1.20
2019-05-05T12:39:14.212Z,1.47
2019-05-05T12:41:44.665Z,1.30
2019-05-05T12:44:15.310Z,1.50
2019-05-05T12:46:51.364Z,1.23
2019-05-05T12:49:25.528Z,1.30
2019-05-05T12:51:57.236Z,1.20
2019-05-05T12:54:29.835Z,1.10
2019-05-05T12:57:04.387Z,1.40
2019-05-05T12:59:37.540Z,1.30
2019-05-05T13:02:09.167Z,1.53
2019-05-05T13:04:38.536Z,1.60
2019-05-05T13:07:09.336Z,1.37
2019-05-05T13:09:39.793Z,1.30
2019-05-05T13:12:09.152Z,1.60
2019-05-05T13:14:38.148Z,1.40
2019-05-05T13:17:06.976Z,1.43
2019-05-05T13:19:44.726Z,1.10
2019-05-05T13:22:16.511Z,1.50
2019-05-05T13:24:51.648Z,1.50
2019-05-05T13:27:21.798Z,1.47
2019-05-05T13:29:53.699Z,1.50
2019-05-05T13:32:24.572Z,1.57
2019-05-05T13:34:54.532Z,1.50
2019-05-05T13:37:24.451Z,1.50
2019-05-05T13:39:53.912Z,1.40
2019-05-05T13:42:24.959Z,1.40
2019-05-05T13:45:05.500Z,1.50
2019-05-05T13:47:36.896Z,1.50
2019-05-05T13:50:14.767Z,1.57
2019-05-05T13:52:44.376Z,1.70
2019-05-05T13:55:24.021Z,1.70
2019-05-05T13:57:54.857Z,1.77
2019-05-05T14:00:25.638Z,1.37
2019-05-05T14:03:03.981Z,1.63
2019-05-05T14:05:36.895Z,1.80
2019-05-05T14:08:06.655Z,1.90
2019-05-05T14:10:38.861Z,1.73
2019-05-05T14:13:10.488Z,1.80
2019-05-05T14:15:43.954Z,1.50
2019-05-05T14:18:10.461Z,1.83
2019-05-05T14:20:44.286Z,1.40
2019-05-05T14:23:14.872Z,1.67
2019-05-05T14:25:45.653Z,1.70
2019-05-05T14:28:18.195Z,1.70
2019-05-05T14:30:54.298Z,1.60
2019-05-05T14:33:26.264Z,1.60
2019-05-05T14:36:06.532Z,1.53
2019-05-05T14:38:39.963Z,1.40
2019-05-05T14:41:13.599Z,1.70
2019-05-05T14:43:45.360Z,1.37
2019-05-05T14:46:14.635Z,1.57
2019-05-05T14:48:45.956Z,1.60
2019-05-05T14:51:15.808Z,1.40
2019-05-05T14:53:47.088Z,1.60
2019-05-05T14:56:18.856Z,1.67
2019-05-05T14:58:50.822Z,1.83
2019-05-05T15:01:24.600Z,1.30
2019-05-05T15:03:55.316Z,1.50
2019-05-05T15:06:31.403Z,1.60
2019-05-05T15:09:05.444Z,1.60
2019-05-05T15:11:45.327Z,1.70
2019-05-05T15:14:17.157Z,1.57
2019-05-05T15:16:46.438Z,1.77
2019-05-05T15:19:18.767Z,1.63
2019-05-05T15:21:48.919Z,1.53
2019-05-05T15:24:18.372Z,1.53
2019-05-05T15:26:52.034Z,1.60
2019-05-05T15:29:20.175Z,1.50
2019-05-05T15:31:50.693Z,1.63
2019-05-05T15:34:24.480Z,1.60
2019-05-05T15:36:54.677Z,2.00
2019-05-05T15:39:24.871Z,1.80
2019-05-05T15:41:59.612Z,2.20
2019-05-05T15:44:37.210Z,1.93
2019-05-05T15:47:24.836Z,1.77
2019-05-05T15:49:56.204Z,4.33
2019-05-05T15:52:26.197Z,2.70
2019-05-05T15:54:55.195Z,1.90
2019-05-05T15:57:25.238Z,2.43
2019-05-05T15:59:54.272Z,2.30
2019-05-05T16:02:24.076Z,1.97
2019-05-05T16:04:54.141Z,1.87
2019-05-05T16:07:24.229Z,1.70
2019-05-05T16:09:54.872Z,2.70
2019-05-05T16:12:33.799Z,2.13
2019-05-05T16:15:15.940Z,2.20
2019-05-05T16:17:46.288Z,1.90
2019-05-05T16:20:24.376Z,1.70
2019-05-05T16:22:59.235Z,1.80
2019-05-05T16:25:29.055Z,1.70
2019-05-05T16:28:00.836Z,2.37
2019-05-05T16:30:30.548Z,1.70
2019-05-05T16:32:59.263Z,2.00
2019-05-05T16:35:29.298Z,1.80
2019-05-05T16:38:00.435Z,1.73
2019-05-05T16:40:30.615Z,1.90
2019-05-05T16:43:00.841Z,1.50
2019-05-05T16:45:34.037Z,1.67
2019-05-05T16:48:07.077Z,1.80
2019-05-05T16:50:36.901Z,1.47
2019-05-05T16:53:07.382Z,1.77
2019-05-05T16:55:51.544Z,1.93
2019-05-05T16:58:21.279Z,1.80
2019-05-05T17:00:50.271Z,1.60
2019-05-05T17:03:18.930Z,1.70
2019-05-05T17:05:48.218Z,1.50
2019-05-05T17:08:16.890Z,1.73
2019-05-05T17:10:45.337Z,1.60
2019-05-05T17:13:15.636Z,1.60
2019-05-05T17:15:47.001Z,1.40
2019-05-05T17:18:35.740Z,1.67
2019-05-05T17:21:09.312Z,1.57
2019-05-05T17:23:38.014Z,1.47
2019-05-05T17:26:06.415Z,1.37
2019-05-05T17:28:35.075Z,1.60
2019-05-05T17:31:03.562Z,1.47
2019-05-05T17:33:34.604Z,1.40
2019-05-05T17:36:04.901Z,1.70
2019-05-05T17:38:34.415Z,2.03
2019-05-05T17:41:04.579Z,1.40
2019-05-05T17:43:49.335Z,1.40
2019-05-05T17:46:27.008Z,1.50
2019-05-05T17:48:58.083Z,1.60
2019-05-05T17:51:32.736Z,1.57
2019-05-05T17:54:05.156Z,1.40
2019-05-05T17:56:35.467Z,1.67
2019-05-05T17:59:06.314Z,1.30
2019-05-05T18:01:34.739Z,1.40
2019-05-05T18:04:04.924Z,1.53
2019-05-05T18:06:39.501Z,1.60
2019-05-05T18:09:11.288Z,1.40
2019-05-05T18:11:45.448Z,1.30
2019-05-05T18:14:27.355Z,1.37
2019-05-05T18:16:59.020Z,1.57
2019-05-05T18:19:34.020Z,1.37
2019-05-05T18:22:04.360Z,1.27
2019-05-05T18:24:34.356Z,1.67
2019-05-05T18:27:04.565Z,1.50
2019-05-05T18:29:34.983Z,1.50
2019-05-05T18:32:05.841Z,1.50
2019-05-05T18:34:37.563Z,1.50
2019-05-05T18:37:09.296Z,1.40
2019-05-05T18:39:37.707Z,1.40
2019-05-05T18:42:11.035Z,1.50
2019-05-05T18:44:47.365Z,1.27
2019-05-05T18:47:25.137Z,1.40
2019-05-05T18:49:56.806Z,1.20
2019-05-05T18:52:28.619Z,1.30
2019-05-05T18:55:00.164Z,1.63
2019-05-05T18:57:34.153Z,1.40
2019-05-05T19:00:05.711Z,1.50
2019-05-05T19:02:44.314Z,1.63
2019-05-05T19:05:15.300Z,1.57
2019-05-05T19:07:56.191Z,1.37
2019-05-05T19:10:26.335Z,1.40
2019-05-05T19:12:57.868Z,1.40
2019-05-05T19:15:27.867Z,1.70
2019-05-05T19:17:57.828Z,1.53
2019-05-05T19:20:35.196Z,1.40
2019-05-05T19:23:05.985Z,1.43
2019-05-05T19:25:37.611Z,1.43
2019-05-05T19:28:07.964Z,1.30
2019-05-05T19:30:39.339Z,1.33
2019-05-05T19:33:09.411Z,1.70
2019-05-05T19:35:44.300Z,1.37
2019-05-05T19:38:09.269Z,1.30
2019-05-05T19:40:41.830Z,1.37
2019-05-05T19:43:13.920Z,1.23
2019-05-05T19:45:47.855Z,1.33
2019-05-05T19:48:17.437Z,1.60
2019-05-05T19:50:54.088Z,1.40
2019-05-05T19:53:27.299Z,1.60
2019-05-05T19:55:59.026Z,1.60
2019-05-05T19:58:28.000Z,1.30
2019-05-05T20:01:04.395Z,1.50
2019-05-05T20:03:35.086Z,1.70
2019-05-05T20:06:08.267Z,1.60
2019-05-05T20:08:41.629Z,1.53
2019-05-05T20:11:07.581Z,1.17
2019-05-05T20:13:36.124Z,1.30
2019-05-05T20:16:25.933Z,1.60
2019-05-05T20:18:56.007Z,1.13
2019-05-05T20:21:24.478Z,1.57
2019-05-05T20:23:54.495Z,1.17
2019-05-05T20:26:23.972Z,1.40
2019-05-05T20:28:55.325Z,1.60
2019-05-05T20:31:24.536Z,1.30
2019-05-05T20:34:03.833Z,1.20
2019-05-05T20:36:34.677Z,1.47
2019-05-05T20:39:08.916Z,1.50
2019-05-05T20:41:43.590Z,1.70
2019-05-05T20:44:13.899Z,1.23
2019-05-05T20:46:46.809Z,1.23
2019-05-05T20:49:19.449Z,1.40
2019-05-05T20:51:49.669Z,1.80
2019-05-05T20:54:25.114Z,1.33
2019-05-05T20:56:55.172Z,1.40
2019-05-05T20:59:31.150Z,1.70
2019-05-05T21:02:04.197Z,1.47
2019-05-05T21:04:34.494Z,1.60
2019-05-05T21:07:04.437Z,1.40
2019-05-05T21:09:34.541Z,1.40
2019-05-05T21:12:06.366Z,1.30
2019-05-05T21:14:38.180Z,1.60
2019-05-05T21:17:08.293Z,1.50
2019-05-05T21:19:36.692Z,1.43
2019-05-05T21:22:23.223Z,1.30
2019-05-05T21:24:54.253Z,1.67
2019-05-05T21:27:26.312Z,1.47
2019-05-05T21:30:00.219Z,1.50
2019-05-05T21:32:29.378Z,1.33
2019-05-05T21:34:59.348Z,1.20
2019-05-05T21:37:29.061Z,1.50
2019-05-05T21:40:01.149Z,1.50
2019-05-05T21:42:31.179Z,1.40
2019-05-05T21:45:04.502Z,1.37
2019-05-05T21:47:38.198Z,1.30
2019-05-05T21:50:09.088Z,1.37
2019-05-05T21:52:59.341Z,1.50
2019-05-05T21:55:47.334Z,1.20
2019-05-05T21:58:24.715Z,1.47
2019-05-05T22:00:54.787Z,1.23
2019-05-05T22:03:31.921Z,1.33
2019-05-05T22:06:00.335Z,1.67
2019-05-05T22:08:30.538Z,1.30
2019-05-05T22:11:00.418Z,1.40
2019-05-05T22:13:30.099Z,1.33
2019-05-05T22:15:58.506Z,1.40
2019-05-05T22:18:29.967Z,1.37
2019-05-05T22:21:05.719Z,1.67
2019-05-05T22:23:36.822Z,1.40
2019-05-05T22:26:06.827Z,1.27
2019-05-05T22:28:35.548Z,1.70
2019-05-05T22:31:05.648Z,1.27
2019-05-05T22:33:34.623Z,1.33
2019-05-05T22:36:04.364Z,1.70
2019-05-05T22:38:34.979Z,1.33
2019-05-05T22:41:05.163Z,1.40
2019-05-05T22:43:35.485Z,1.50
2019-05-05T22:46:06.539Z,1.37
2019-05-05T22:48:34.956Z,1.53
2019-05-05T22:51:04.728Z,1.90
2019-05-05T22:53:34.655Z,1.53
2019-05-05T22:56:04.027Z,1.43
2019-05-05T22:58:34.687Z,1.73
2019-05-05T23:01:06.080Z,1.50
2019-05-05T23:03:36.728Z,1.50
2019-05-05T23:06:08.735Z,1.60
2019-05-05T23:08:37.439Z,1.60
2019-05-05T23:11:08.284Z,1.60
2019-05-05T23:13:40.135Z,1.60
2019-05-05T23:16:17.532Z,1.40
2019-05-05T23:18:47.592Z,1.57
2019-05-05T23:21:24.261Z,1.37
2019-05-05T23:27:03.926Z,1.60
2019-05-05T23:29:35.725Z,1.40
2019-05-05T23:32:04.138Z,1.40
2019-05-05T23:34:33.838Z,1.50
2019-05-05T23:37:05.184Z,1.50
2019-05-05T23:39:33.876Z,1.53
2019-05-05T23:42:04.101Z,1.60
2019-05-05T23:44:35.556Z,1.53
2019-05-05T23:47:04.396Z,1.83
2019-05-05T23:49:37.860Z,1.53
2019-05-05T23:52:08.023Z,1.50
2019-05-05T23:54:38.475Z,1.67
2019-05-05T23:57:08.837Z,1.47
2019-05-05T23:59:37.239Z,1.70
